Time;durP1;ratioP1;P1;durP2;ratioP2;P2;SDS_P1;SDS_P2;PMS_P1;PMS_P2;Temp;Humidity;BMP_temperature;BMP_pressure;BME280_temperature;BME280_humidity;BME280_pressure;Samples;Min_cycle;Max_cycle;Signal;HPM_P1;HPM_P2
2021/12/08 00:00:39;;;;;;;;;;;;;;;-0.73;77.81;99478.53;4445499;32;33371;-64
2021/12/08 00:03:07;;;;;;;;;;;;;;;-0.96;77.13;99480.81;4438325;32;33644;-65
2021/12/08 00:05:36;;;;;;;;;;;;;;;-1.30;79.51;99483.88;4440037;32;34371;-66
2021/12/08 00:08:04;;;;;;;;;;;;;;;-0.78;78.40;99482.34;4439657;32;34067;-65
2021/12/08 00:13:07;;;;;;;;;;;;;;;-1.35;79.03;99489.31;4438990;32;33844;-65
2021/12/08 00:15:35;;;;;;;;;;;;;;;-1.64;81.22;99506.37;4437858;32;34163;-65
2021/12/08 00:18:04;;;;;;;;;;;;;;;-0.98;77.73;99497.56;4438373;32;34189;-64
2021/12/08 00:20:32;;;;;;;;;;;;;;;-0.97;78.76;99489.16;4436194;32;34369;-66
2021/12/08 00:23:01;;;;;;;;;;;;;;;-0.24;74.61;99487.66;4436529;32;33329;-66
2021/12/08 00:25:29;;;;;;;;;;;;;;;-0.77;75.62;99494.31;4437275;32;34020;-64
2021/12/08 00:27:57;;;;;;;;;;;;;;;-0.49;76.10;99494.06;4435662;32;34095;-66
2021/12/08 00:30:24;;;;;;;;;;;;;;;0.50;71.56;99501.25;4435296;32;33527;-64
2021/12/08 00:32:53;;;;;;;;;;;;;;;0.65;70.60;99501.56;4434477;32;34206;-65
2021/12/08 00:35:20;;;;;;;;;;;;;;;0.14;72.01;99507.72;4435586;32;34854;-65
2021/12/08 00:37:47;;;;;;;;;;;;;;;0.11;72.73;99504.91;4434192;32;34336;-66
2021/12/08 00:40:15;;;;;;;;;;;;;;;-0.38;74.63;99500.94;4419850;32;32850;-64
2021/12/08 00:42:43;;;;;;;;;;;;;;;0.29;72.06;99499.53;4433466;32;33770;-65
2021/12/08 00:45:11;;;;;;;;;;;;;;;0.26;72.01;99501.84;4436039;32;34311;-64
2021/12/08 00:47:39;;;;;;;;;;;;;;;0.08;72.71;99504.69;4430107;32;34502;-65
2021/12/08 00:50:07;;;;;;;;;;;;;;;0.22;72.24;99508.34;4438430;32;33334;-65
2021/12/08 00:52:35;;;;;;;;;;;;;;;-0.39;74.44;99509.31;4436529;32;34171;-65
2021/12/08 00:55:03;;;;;;;;;;;;;;;-0.42;75.09;99517.59;4439514;32;33987;-65
2021/12/08 00:57:31;;;;;;;;;;;;;;;-0.17;73.57;99511.06;4438389;32;34444;-65
2021/12/08 01:00:00;;;;;;;;;;;;;;;-0.54;74.65;99511.50;4438534;32;33425;-66
2021/12/08 01:02:27;;;;;;;;;;;;;;;-0.13;73.67;99508.91;4436187;32;33814;-64
2021/12/08 01:04:54;;;;;;;;;;;;;;;-1.28;78.67;99524.66;4439309;32;33960;-64
2021/12/08 01:07:30;;;;;;;;;;;;;;;-1.17;77.52;99516.31;4430527;32;34445;-65
2021/12/08 01:09:57;;;;;;;;;;;;;;;-1.60;79.49;99517.69;4436084;32;33409;-66
2021/12/08 01:12:24;;;;;;;;;;;;;;;-1.52;79.88;99519.25;4424529;32;34927;-65
2021/12/08 01:14:51;;;;;;;;;;;;;;;-0.88;77.39;99523.00;4439266;32;33857;-66
2021/12/08 01:17:18;;;;;;;;;;;;;;;-1.34;79.14;99521.59;4437663;32;35103;-66
2021/12/08 01:19:46;;;;;;;;;;;;;;;-1.35;78.69;99510.56;4439261;32;33396;-65
2021/12/08 01:22:13;;;;;;;;;;;;;;;-1.57;79.99;99500.16;4439174;32;34903;-65
2021/12/08 01:24:40;;;;;;;;;;;;;;;-1.55;79.78;99496.09;4440726;32;33814;-65
2021/12/08 01:27:08;;;;;;;;;;;;;;;-1.61;80.24;99491.37;4437268;32;34494;-66
2021/12/08 01:29:35;;;;;;;;;;;;;;;-1.43;79.45;99483.56;4425842;32;32928;-66
2021/12/08 01:32:02;;;;;;;;;;;;;;;-1.70;79.75;99489.69;4439682;32;34049;-65
2021/12/08 01:34:30;;;;;;;;;;;;;;;-2.00;81.25;99483.72;4439664;32;33960;-65
2021/12/08 01:36:57;;;;;;;;;;;;;;;-1.82;80.96;99477.69;4422742;32;34392;-66
2021/12/08 01:39:24;;;;;;;;;;;;;;;-1.69;80.70;99476.25;4437697;32;33792;-65
2021/12/08 01:41:53;;;;;;;;;;;;;;;-0.76;76.39;99459.56;4436800;32;34213;-65
2021/12/08 01:47:06;;;;;;;;;;;;;;;-2.21;80.81;99468.34;4436290;32;33640;-65
2021/12/08 01:49:34;;;;;;;;;;;;;;;-2.37;81.51;99462.66;4439069;32;33777;-64
2021/12/08 01:52:01;;;;;;;;;;;;;;;-2.14;80.52;99464.72;4437345;32;34667;-65
2021/12/08 01:54:28;;;;;;;;;;;;;;;-1.82;79.02;99457.38;4439028;32;34052;-65
2021/12/08 01:56:57;;;;;;;;;;;;;;;-1.73;78.61;99458.97;4437573;32;35039;-64
2021/12/08 01:59:24;;;;;;;;;;;;;;;-2.04;79.73;99452.09;4438931;32;33461;-64
2021/12/08 02:01:51;;;;;;;;;;;;;;;-2.36;81.25;99451.75;4455916;26;34766;-91
2021/12/08 02:04:48;;;;;;;;;;;;;;;-2.23;80.83;99449.56;4432344;32;33234;-91
2021/12/08 02:07:44;;;;;;;;;;;;;;;-2.23;80.77;99454.63;4451047;27;34709;-65
2021/12/08 02:10:12;;;;;;;;;;;;;;;-1.43;77.69;99441.31;4451470;32;34198;-65
2021/12/08 02:12:41;;;;;;;;;;;;;;;-1.48;77.26;99440.00;4452646;32;35328;-65
2021/12/08 02:15:10;;;;;;;;;;;;;;;-1.60;77.76;99433.88;4454512;32;34166;-65
2021/12/08 02:17:38;;;;;;;;;;;;;;;-1.39;76.77;99417.94;4450848;32;34293;-65
2021/12/08 02:20:07;;;;;;;;;;;;;;;-1.37;76.75;99415.53;4452283;32;33404;-65
2021/12/08 02:22:34;;;;;;;;;;;;;;;-1.33;76.76;99411.56;4453178;32;33632;-65
2021/12/08 02:25:02;;;;;;;;;;;;;;;-1.56;77.54;99413.06;4443996;32;34721;-65
2021/12/08 02:27:31;;;;;;;;;;;;;;;-1.74;78.03;99414.87;4459171;32;34242;-64
2021/12/08 02:30:06;;;;;;;;;;;;;;;-1.47;77.37;99429.09;4450023;32;33353;-64
2021/12/08 02:49:00;;;;;;;;;;;;;;;-0.87;72.70;99443.41;4438630;32;32652;-64
2021/12/08 02:51:27;;;;;;;;;;;;;;;0.29;68.29;99440.94;4455715;32;34302;-65
2021/12/08 02:53:54;;;;;;;;;;;;;;;0.50;66.85;99444.28;4449903;32;33922;-65
2021/12/08 02:56:22;;;;;;;;;;;;;;;0.24;67.78;99455.88;4446347;32;34267;-65
2021/12/08 02:58:49;;;;;;;;;;;;;;;0.16;68.57;99460.34;4452765;32;35194;-65
2021/12/08 03:01:16;;;;;;;;;;;;;;;-0.09;69.38;99462.56;4448220;32;34608;-65
2021/12/08 03:03:43;;;;;;;;;;;;;;;-0.90;72.28;99453.34;4450478;32;34155;-65
2021/12/08 03:06:12;;;;;;;;;;;;;;;-1.67;75.62;99467.13;4452562;32;34006;-65
2021/12/08 03:08:39;;;;;;;;;;;;;;;-1.96;77.40;99468.00;4444806;32;35344;-65
2021/12/08 03:11:06;;;;;;;;;;;;;;;-2.10;78.31;99459.16;4450248;32;33535;-65
2021/12/08 03:13:34;;;;;;;;;;;;;;;-1.79;77.15;99460.19;4451448;32;34225;-65
2021/12/08 03:16:01;;;;;;;;;;;;;;;-1.90;77.38;99468.53;4441427;32;34186;-65
2021/12/08 03:18:34;;;;;;;;;;;;;;;-2.30;79.09;99462.47;4453838;32;34184;-65
2021/12/08 03:21:02;;;;;;;;;;;;;;;-2.30;78.93;99454.88;4456625;32;33719;-65
2021/12/08 03:23:37;;;;;;;;;;;;;;;-2.34;78.68;99455.31;4452029;32;34280;-65
2021/12/08 03:26:06;;;;;;;;;;;;;;;-2.58;79.92;99459.97;4460176;32;34061;-65
2021/12/08 03:28:40;;;;;;;;;;;;;;;-2.82;80.91;99453.59;4457293;32;35256;-65
2021/12/08 03:31:13;;;;;;;;;;;;;;;-2.49;80.09;99456.47;4458511;32;33410;-66
2021/12/08 03:33:41;;;;;;;;;;;;;;;-2.47;79.79;99455.88;4433938;32;34690;-65
2021/12/08 03:36:08;;;;;;;;;;;;;;;-2.51;79.57;99451.28;4454144;32;34049;-65
2021/12/08 03:38:36;;;;;;;;;;;;;;;-2.42;79.85;99451.22;4454702;32;34929;-65
2021/12/08 03:41:06;;;;;;;;;;;;;;;-2.34;79.45;99447.69;4451163;32;34335;-65
2021/12/08 03:43:33;;;;;;;;;;;;;;;-2.17;78.21;99442.47;4453828;32;33931;-66
2021/12/08 03:46:00;;;;;;;;;;;;;;;-1.91;76.98;99451.53;4455810;32;33645;-66
2021/12/08 03:48:38;;;;;;;;;;;;;;;-2.22;78.11;99451.34;4452847;32;34943;-66
2021/12/08 03:51:05;;;;;;;;;;;;;;;-2.04;77.03;99441.94;4442929;32;33635;-66
2021/12/08 03:53:33;;;;;;;;;;;;;;;-2.15;77.37;99439.22;4452810;32;34712;-63
2021/12/08 03:56:00;;;;;;;;;;;;;;;-2.31;78.30;99435.31;4445362;32;34940;-64
2021/12/08 03:58:27;;;;;;;;;;;;;;;-1.87;76.97;99445.97;4457448;32;34730;-63
2021/12/08 04:00:56;;;;;;;;;;;;;;;-1.81;76.19;99443.94;4457435;32;33479;-65
2021/12/08 04:03:26;;;;;;;;;;;;;;;-1.92;76.42;99447.19;4451855;32;34129;-64
2021/12/08 04:05:59;;;;;;;;;;;;;;;-2.08;77.06;99439.00;4455513;32;34957;-65
2021/12/08 04:08:31;;;;;;;;;;;;;;;-2.49;78.52;99452.31;4440400;32;33757;-65
2021/12/08 04:10:59;;;;;;;;;;;;;;;-2.49;78.19;99459.94;4463687;32;34136;-65
2021/12/08 04:13:29;;;;;;;;;;;;;;;-2.91;79.37;99454.38;4453880;32;34320;-64
2021/12/08 04:15:57;;;;;;;;;;;;;;;-2.93;78.98;99454.25;4444831;32;34170;-65
2021/12/08 04:18:24;;;;;;;;;;;;;;;-3.00;79.27;99447.69;4450631;32;34561;-65
2021/12/08 04:20:53;;;;;;;;;;;;;;;-3.00;79.32;99452.75;4454544;32;33153;-64
2021/12/08 04:23:21;;;;;;;;;;;;;;;-3.10;79.86;99455.22;4453177;32;34188;-65
2021/12/08 04:25:50;;;;;;;;;;;;;;;-2.81;78.89;99449.41;4444115;32;33908;-65
2021/12/08 04:28:19;;;;;;;;;;;;;;;-2.97;79.06;99437.84;4452958;32;34831;-64
2021/12/08 04:30:58;;;;;;;;;;;;;;;-3.15;79.98;99438.69;4457814;32;33208;-63
2021/12/08 04:33:25;;;;;;;;;;;;;;;-3.27;80.40;99435.03;4453655;32;34354;-65
2021/12/08 04:35:53;;;;;;;;;;;;;;;-3.02;80.14;99444.13;4447746;32;34104;-65
2021/12/08 04:38:26;;;;;;;;;;;;;;;-2.89;79.52;99445.28;4453461;32;34171;-65
2021/12/08 04:41:03;;;;;;;;;;;;;;;-2.36;77.58;99451.75;4459219;32;33256;-65
2021/12/08 04:43:39;;;;;;;;;;;;;;;-2.11;76.45;99454.81;4450896;32;34856;-65
2021/12/08 04:46:27;;;;;;;;;;;;;;;-2.51;77.63;99446.22;4448770;32;34161;-65
2021/12/08 05:03:25;;;;;;;;;;;;;;;-2.05;71.82;99459.56;4454753;32;34067;-65
2021/12/08 05:06:18;;;;;;;;;;;;;;;-2.00;71.45;99458.31;4451153;32;33982;-65
2021/12/08 05:08:47;;;;;;;;;;;;;;;-0.65;66.45;99452.06;4447235;32;33990;-65
2021/12/08 05:11:20;;;;;;;;;;;;;;;-0.56;65.39;99430.69;4461122;32;34927;-65
2021/12/08 05:13:49;;;;;;;;;;;;;;;-0.54;64.65;99437.72;4453789;32;33292;-65
2021/12/08 05:16:17;;;;;;;;;;;;;;;0.18;61.22;99461.34;4460019;32;33684;-65
2021/12/08 05:18:45;;;;;;;;;;;;;;;-0.07;61.58;99452.53;4454453;32;34197;-65
2021/12/08 05:21:33;;;;;;;;;;;;;;;-1.87;67.37;99453.56;4454953;32;34370;-65
2021/12/08 05:24:06;;;;;;;;;;;;;;;-2.42;70.23;99448.66;4444458;32;34277;-65
2021/12/08 05:26:33;;;;;;;;;;;;;;;-2.68;71.50;99456.47;4446560;32;34829;-65
2021/12/08 05:29:03;;;;;;;;;;;;;;;-2.87;72.99;99458.97;4436217;32;33448;-65
2021/12/08 05:31:31;;;;;;;;;;;;;;;-2.74;73.80;99449.22;4457291;32;34506;-65
2021/12/08 05:34:04;;;;;;;;;;;;;;;-2.55;73.07;99445.78;4453506;32;33726;-65
2021/12/08 05:36:32;;;;;;;;;;;;;;;-2.74;74.22;99456.81;4448403;32;34485;-65
2021/12/08 05:38:59;;;;;;;;;;;;;;;-2.15;72.51;99444.28;4454366;32;33993;-66
2021/12/08 05:41:28;;;;;;;;;;;;;;;-2.16;72.20;99428.16;4451493;32;34332;-65
2021/12/08 05:43:56;;;;;;;;;;;;;;;-2.19;71.87;99431.31;4453138;32;33752;-65
2021/12/08 05:46:29;;;;;;;;;;;;;;;-1.72;71.06;99431.19;4453528;32;34111;-65
2021/12/08 05:48:56;;;;;;;;;;;;;;;-1.39;69.33;99438.25;4466669;32;34889;-65
2021/12/08 05:51:25;;;;;;;;;;;;;;;-0.91;68.01;99436.28;4460218;32;34137;-65
2021/12/08 05:53:54;;;;;;;;;;;;;;;-2.48;72.92;99450.66;4441266;32;33352;-65
2021/12/08 05:56:21;;;;;;;;;;;;;;;-2.62;73.85;99452.84;4453172;32;34912;-65
2021/12/08 05:58:50;;;;;;;;;;;;;;;-1.17;68.51;99447.72;4456916;32;34170;-65
2021/12/08 06:01:20;;;;;;;;;;;;;;;-1.07;66.08;99447.72;4455470;32;35212;-65
2021/12/08 06:03:48;;;;;;;;;;;;;;;-2.31;71.28;99442.03;4456590;32;34236;-65
2021/12/08 06:06:16;;;;;;;;;;;;;;;-2.05;70.63;99449.41;4453078;32;34783;-65
2021/12/08 06:08:43;;;;;;;;;;;;;;;-1.01;67.30;99452.44;4454843;32;35031;-65
2021/12/08 06:11:11;;;;;;;;;;;;;;;-1.82;69.36;99456.50;4459379;32;34159;-65
2021/12/08 06:13:39;;;;;;;;;;;;;;;-1.44;68.67;99454.75;4457578;32;33698;-65
2021/12/08 06:16:07;;;;;;;;;;;;;;;-1.92;68.96;99466.63;4455100;32;33954;-65
2021/12/08 06:18:39;;;;;;;;;;;;;;;-2.14;70.13;99458.72;4452872;32;34256;-65
2021/12/08 06:21:08;;;;;;;;;;;;;;;-2.03;69.37;99458.03;4461536;32;34507;-65
2021/12/08 06:23:35;;;;;;;;;;;;;;;-2.10;69.31;99459.16;4439796;32;31941;-65
2021/12/08 06:26:04;;;;;;;;;;;;;;;-2.07;69.18;99454.34;4452996;32;34819;-65
2021/12/08 06:28:31;;;;;;;;;;;;;;;-2.42;70.98;99458.81;4460668;32;34710;-65
2021/12/08 06:30:59;;;;;;;;;;;;;;;-2.30;70.97;99465.00;4459231;32;34576;-65
2021/12/08 06:33:26;;;;;;;;;;;;;;;-1.49;68.70;99450.91;4454657;32;33338;-65
2021/12/08 06:35:55;;;;;;;;;;;;;;;-1.66;68.30;99466.34;4451850;32;33993;-65
2021/12/08 06:38:24;;;;;;;;;;;;;;;-3.00;73.40;99472.16;4452222;32;34947;-65
2021/12/08 06:40:53;;;;;;;;;;;;;;;-2.99;73.58;99474.84;4452906;32;34924;-64
2021/12/08 06:43:22;;;;;;;;;;;;;;;-1.72;69.72;99475.97;4437536;32;32749;-64
2021/12/08 06:45:51;;;;;;;;;;;;;;;-0.85;65.93;99454.59;4452918;32;34120;-65
2021/12/08 06:48:21;;;;;;;;;;;;;;;-0.75;65.28;99457.16;4440913;32;34518;-63
2021/12/08 06:51:00;;;;;;;;;;;;;;;-0.56;63.91;99449.41;4441161;32;33195;-65
2021/12/08 06:53:28;;;;;;;;;;;;;;;-0.62;63.61;99453.97;4461869;32;33999;-64
2021/12/08 06:55:57;;;;;;;;;;;;;;;-0.20;61.86;99459.16;4455642;32;34645;-65
2021/12/08 06:58:30;;;;;;;;;;;;;;;-0.22;61.42;99458.13;4454547;32;35004;-65
2021/12/08 07:09:20;;;;;;;;;;;;;;;-2.22;69.21;99460.59;4426693;32;34182;-65
2021/12/08 07:11:48;;;;;;;;;;;;;;;-1.75;69.07;99456.28;4453616;32;35182;-66
2021/12/08 07:14:15;;;;;;;;;;;;;;;-0.74;64.90;99442.78;4452501;32;34194;-66
2021/12/08 07:16:44;;;;;;;;;;;;;;;-0.79;64.27;99439.88;4439829;32;34539;-66
2021/12/08 07:19:22;;;;;;;;;;;;;;;-2.02;68.65;99448.03;4452103;32;34477;-64
2021/12/08 07:21:52;;;;;;;;;;;;;;;-2.43;70.79;99454.50;4441604;32;33938;-64
2021/12/08 07:24:22;;;;;;;;;;;;;;;-2.54;71.41;99461.16;4451000;32;33450;-65
2021/12/08 07:26:50;;;;;;;;;;;;;;;-1.53;68.81;99456.50;4438697;32;33882;-65
2021/12/08 07:29:19;;;;;;;;;;;;;;;-2.14;69.66;99457.09;4449796;32;34166;-65
2021/12/08 07:31:49;;;;;;;;;;;;;;;-2.19;70.69;99446.53;4453709;32;34315;-65
2021/12/08 07:34:20;;;;;;;;;;;;;;;-2.25;71.08;99458.69;4462598;32;33628;-65
2021/12/08 07:36:49;;;;;;;;;;;;;;;-2.11;71.43;99459.00;4458932;32;34306;-65
2021/12/08 07:39:18;;;;;;;;;;;;;;;-2.20;71.85;99449.84;4455051;32;34177;-65
2021/12/08 07:41:49;;;;;;;;;;;;;;;-2.38;72.82;99464.31;4451733;32;34311;-65
2021/12/08 07:44:16;;;;;;;;;;;;;;;-2.61;74.15;99461.34;4451969;32;33394;-65
2021/12/08 07:46:46;;;;;;;;;;;;;;;-2.43;73.54;99465.53;4455201;32;34242;-65
2021/12/08 07:49:15;;;;;;;;;;;;;;;-2.32;73.22;99469.03;4442156;32;34763;-64
2021/12/08 07:51:45;;;;;;;;;;;;;;;-2.27;73.49;99470.34;4459146;32;35084;-64
2021/12/08 07:54:12;;;;;;;;;;;;;;;-1.27;70.62;99462.94;4452625;32;33321;-65
2021/12/08 07:56:41;;;;;;;;;;;;;;;-0.61;68.03;99456.66;4458125;32;34222;-64
2021/12/08 07:59:09;;;;;;;;;;;;;;;-0.79;68.35;99470.41;4457510;32;35042;-66
2021/12/08 08:01:40;;;;;;;;;;;;;;;-0.76;68.34;99465.53;4434349;32;35214;-65
2021/12/08 08:04:10;;;;;;;;;;;;;;;0.08;65.88;99458.84;4441976;32;33402;-64
2021/12/08 08:06:41;;;;;;;;;;;;;;;0.61;63.91;99465.53;4438724;32;34275;-65
2021/12/08 08:09:11;;;;;;;;;;;;;;;0.68;64.16;99465.25;4448580;32;34815;-64
2021/12/08 08:11:42;;;;;;;;;;;;;;;0.88;63.46;99457.47;4435780;32;33678;-64
2021/12/08 08:14:10;;;;;;;;;;;;;;;1.00;62.53;99449.84;4454662;32;33537;-64
2021/12/08 08:16:38;;;;;;;;;;;;;;;0.85;63.29;99454.69;4453255;32;34951;-64
2021/12/08 08:19:10;;;;;;;;;;;;;;;1.11;62.52;99468.53;4454341;32;33900;-64
2021/12/08 08:21:42;;;;;;;;;;;;;;;1.18;62.70;99463.16;4453106;32;33204;-65
2021/12/08 08:24:10;;;;;;;;;;;;;;;1.05;62.84;99462.97;4454235;32;34187;-65
2021/12/08 08:26:38;;;;;;;;;;;;;;;0.23;66.34;99465.91;4435616;32;33304;-65
2021/12/08 08:29:07;;;;;;;;;;;;;;;0.53;66.32;99470.91;4455234;32;34771;-66
2021/12/08 08:31:42;;;;;;;;;;;;;;;1.25;64.38;99472.16;4449188;32;34375;-66
2021/12/08 08:34:10;;;;;;;;;;;;;;;1.34;64.03;99475.41;4455843;32;33529;-66
2021/12/08 08:36:39;;;;;;;;;;;;;;;1.40;63.98;99472.44;4452278;32;34847;-67
2021/12/08 08:39:08;;;;;;;;;;;;;;;1.51;63.98;99472.44;4442530;32;33992;-65
2021/12/08 08:41:43;;;;;;;;;;;;;;;1.64;63.77;99479.38;4455954;32;34830;-65
2021/12/08 08:44:13;;;;;;;;;;;;;;;1.70;63.91;99479.81;4455645;32;33642;-66
2021/12/08 08:46:41;;;;;;;;;;;;;;;1.83;63.79;99473.06;4441915;32;34940;-64
2021/12/08 08:49:10;;;;;;;;;;;;;;;2.30;62.84;99465.44;4448211;32;34156;-65
2021/12/08 08:51:45;;;;;;;;;;;;;;;2.16;63.50;99472.06;4441296;32;34351;-66
2021/12/08 08:54:15;;;;;;;;;;;;;;;1.83;64.90;99465.41;4454979;32;33722;-65
2021/12/08 08:56:45;;;;;;;;;;;;;;;2.35;63.81;99453.84;4454096;32;33870;-65
2021/12/08 08:59:19;;;;;;;;;;;;;;;2.06;65.18;99470.53;4451600;32;34424;-66
2021/12/08 09:01:48;;;;;;;;;;;;;;;2.10;65.53;99469.97;4441829;32;34120;-65
2021/12/08 09:04:17;;;;;;;;;;;;;;;2.30;65.70;99455.22;4434290;32;33519;-65
2021/12/08 09:06:45;;;;;;;;;;;;;;;2.61;65.07;99444.56;4447993;32;33915;-64
2021/12/08 09:09:15;;;;;;;;;;;;;;;2.90;64.39;99436.37;4425197;32;34810;-66
2021/12/08 09:11:48;;;;;;;;;;;;;;;2.99;64.20;99442.13;4442633;32;34328;-65
2021/12/08 09:14:21;;;;;;;;;;;;;;;3.03;64.55;99436.41;4453126;32;33461;-65
2021/12/08 09:16:53;;;;;;;;;;;;;;;3.20;64.24;99442.69;4440739;32;32705;-64
2021/12/08 09:19:22;;;;;;;;;;;;;;;3.12;64.66;99438.75;4452156;32;34231;-66
2021/12/08 09:21:58;;;;;;;;;;;;;;;3.08;68.37;99436.75;4452402;32;34508;-65
2021/12/08 09:25:05;;;;;;;;;;;;;;;3.18;66.56;99428.03;4454789;32;34361;-66
2021/12/08 09:27:36;;;;;;;;;;;;;;;3.51;65.19;99435.41;4443342;32;34301;-65
2021/12/08 09:30:07;;;;;;;;;;;;;;;3.61;64.37;99442.06;4438311;32;33995;-64
2021/12/08 09:32:39;;;;;;;;;;;;;;;3.60;64.46;99439.38;4452873;32;34318;-65
2021/12/08 09:35:12;;;;;;;;;;;;;;;3.82;64.00;99427.19;4454699;32;34430;-65
2021/12/08 09:37:43;;;;;;;;;;;;;;;3.91;63.75;99416.66;4440699;32;34863;-66
2021/12/08 09:40:33;;;;;;;;;;;;;;;3.82;63.97;99423.72;4448713;32;34005;-65
2021/12/08 09:43:02;;;;;;;;;;;;;;;3.96;63.19;99422.97;4449526;32;35152;-67
2021/12/08 09:45:31;;;;;;;;;;;;;;;4.04;63.44;99419.22;4454659;32;33555;-66
2021/12/08 09:48:02;;;;;;;;;;;;;;;4.01;63.40;99411.31;4453636;32;34234;-66
2021/12/08 09:50:30;;;;;;;;;;;;;;;4.04;63.22;99408.09;4454644;32;34260;-64
2021/12/08 09:52:57;;;;;;;;;;;;;;;4.31;62.39;99399.56;4453064;32;35000;-66
2021/12/08 09:55:25;;;;;;;;;;;;;;;4.38;62.11;99400.84;4454693;32;32886;-66
2021/12/08 09:57:52;;;;;;;;;;;;;;;4.29;62.36;99407.97;4453625;32;34915;-64
2021/12/08 10:00:24;;;;;;;;;;;;;;;4.43;61.99;99409.72;4439623;32;34145;-65
2021/12/08 10:02:58;;;;;;;;;;;;;;;4.69;61.58;99402.72;4454345;32;35177;-65
2021/12/08 10:05:26;;;;;;;;;;;;;;;4.59;61.61;99388.47;4453473;32;33010;-66
2021/12/08 10:07:54;;;;;;;;;;;;;;;4.91;60.94;99395.56;4454884;32;33989;-66
2021/12/08 10:10:22;;;;;;;;;;;;;;;4.98;60.34;99389.09;4439667;32;34047;-66
2021/12/08 10:12:49;;;;;;;;;;;;;;;4.87;60.41;99391.03;4454685;32;34335;-66
2021/12/08 10:15:17;;;;;;;;;;;;;;;5.10;60.04;99386.41;4453748;32;33631;-64
2021/12/08 10:17:45;;;;;;;;;;;;;;;4.91;60.26;99380.16;4453507;32;33875;-65
2021/12/08 10:20:17;;;;;;;;;;;;;;;4.92;60.94;99376.81;4448225;32;34214;-64
2021/12/08 10:22:46;;;;;;;;;;;;;;;5.35;59.78;99378.47;4451093;32;34465;-64
2021/12/08 10:25:17;;;;;;;;;;;;;;;5.20;59.76;99373.31;4451188;32;34329;-65
2021/12/08 10:28:05;;;;;;;;;;;;;;;5.36;59.82;99371.66;4451949;32;34280;-66
2021/12/08 10:30:34;;;;;;;;;;;;;;;5.56;59.01;99363.38;4451075;32;33756;-65
2021/12/08 10:33:10;;;;;;;;;;;;;;;5.35;59.85;99368.22;4453240;32;34206;-66
2021/12/08 10:35:49;;;;;;;;;;;;;;;5.40;59.77;99363.31;4451381;32;33754;-66
2021/12/08 10:38:19;;;;;;;;;;;;;;;5.54;58.71;99359.84;4454456;32;34764;-64
2021/12/08 10:40:56;;;;;;;;;;;;;;;5.45;58.85;99356.78;4453330;32;34230;-64
2021/12/08 10:43:24;;;;;;;;;;;;;;;5.90;57.40;99344.75;4454610;32;35068;-65
2021/12/08 10:46:10;;;;;;;;;;;;;;;5.74;57.83;99342.09;4452299;32;34207;-64
2021/12/08 10:48:44;;;;;;;;;;;;;;;5.98;57.40;99338.37;4453397;32;34123;-65
2021/12/08 10:54:27;;;;;;;;;;;;;;;5.91;58.13;99326.84;4443970;32;34280;-63
2021/12/08 10:56:57;;;;;;;;;;;;;;;5.57;59.04;99329.22;4432944;32;33392;-65
2021/12/08 10:59:25;;;;;;;;;;;;;;;5.97;58.00;99321.19;4451299;32;35537;-66
2021/12/08 11:01:53;;;;;;;;;;;;;;;6.02;57.72;99324.00;4440437;32;34095;-65
2021/12/08 11:04:28;;;;;;;;;;;;;;;5.99;57.74;99319.59;4454385;32;34304;-65
2021/12/08 11:07:02;;;;;;;;;;;;;;;6.23;56.96;99319.16;4440392;32;33505;-63
2021/12/08 11:09:37;;;;;;;;;;;;;;;6.21;57.28;99310.47;4454594;32;34934;-66
2021/12/08 11:12:04;;;;;;;;;;;;;;;6.34;56.80;99310.34;4454270;32;33579;-64
2021/12/08 11:14:42;;;;;;;;;;;;;;;6.40;56.36;99310.66;4440420;32;34502;-65
2021/12/08 11:17:30;;;;;;;;;;;;;;;5.92;57.10;99312.31;4447266;32;33631;-66
2021/12/08 11:20:18;;;;;;;;;;;;;;;6.27;56.70;99305.66;4443776;32;34874;-66
2021/12/08 11:22:57;;;;;;;;;;;;;;;6.22;56.50;99307.09;4460282;32;33353;-64
2021/12/08 11:25:32;;;;;;;;;;;;;;;6.04;57.23;99302.72;4454672;32;35304;-64
2021/12/08 11:28:19;;;;;;;;;;;;;;;6.33;56.36;99300.84;4439537;32;33137;-64
2021/12/08 11:30:47;;;;;;;;;;;;;;;6.27;56.24;99303.09;4453279;32;33808;-64
2021/12/08 11:33:17;;;;;;;;;;;;;;;6.19;56.52;99301.81;4455931;32;34215;-64
2021/12/08 11:35:45;;;;;;;;;;;;;;;6.40;54.99;99297.78;4456142;32;34201;-65
2021/12/08 11:38:13;;;;;;;;;;;;;;;6.18;56.11;99300.00;4462884;32;33695;-64
2021/12/08 11:40:40;;;;;;;;;;;;;;;6.53;55.71;99298.44;4446169;32;34081;-65
2021/12/08 11:43:13;;;;;;;;;;;;;;;6.91;65.85;99297.84;4456888;32;34555;-65
2021/12/08 11:45:42;;;;;;;;;;;;;;;6.99;61.55;99290.50;4463625;32;34328;-66
2021/12/08 11:48:22;;;;;;;;;;;;;;;7.26;56.13;99280.69;4454564;32;33165;-65
2021/12/08 11:51:05;;;;;;;;;;;;;;;7.32;55.19;99290.44;4456495;32;35070;-65
2021/12/08 11:53:36;;;;;;;;;;;;;;;7.65;54.54;99289.50;4458165;32;34273;-64
2021/12/08 11:56:04;;;;;;;;;;;;;;;7.68;55.00;99286.19;4461504;32;33927;-63
2021/12/08 11:58:32;;;;;;;;;;;;;;;7.83;52.16;99286.03;4440831;32;33308;-65
2021/12/08 12:01:01;;;;;;;;;;;;;;;7.80;53.11;99280.72;4460492;32;33815;-65
2021/12/08 12:03:29;;;;;;;;;;;;;;;7.84;51.86;99287.78;4458476;32;33249;-65
2021/12/08 12:05:57;;;;;;;;;;;;;;;8.15;50.85;99284.06;4463487;32;34809;-65
2021/12/08 12:08:24;;;;;;;;;;;;;;;7.71;53.96;99282.84;4444744;32;35630;-65
2021/12/08 12:10:54;;;;;;;;;;;;;;;7.76;52.61;99279.69;4456696;32;34058;-66
2021/12/08 12:13:21;;;;;;;;;;;;;;;7.94;52.38;99282.28;4451618;32;32542;-65
2021/12/08 12:15:49;;;;;;;;;;;;;;;7.92;53.70;99276.16;4441541;32;34690;-64
2021/12/08 12:18:18;;;;;;;;;;;;;;;8.21;51.41;99268.87;4450788;32;33587;-65
2021/12/08 12:20:55;;;;;;;;;;;;;;;7.73;51.35;99273.53;4449884;32;33916;-65
2021/12/08 12:23:22;;;;;;;;;;;;;;;8.02;51.09;99262.88;4461043;32;33907;-64
2021/12/08 12:25:49;;;;;;;;;;;;;;;7.85;52.37;99264.66;4453979;32;34454;-65
2021/12/08 12:28:35;;;;;;;;;;;;;;;8.01;51.57;99261.09;4444769;32;32942;-65
2021/12/08 12:31:22;;;;;;;;;;;;;;;8.39;49.76;99263.66;4455978;32;34238;-65
2021/12/08 12:33:50;;;;;;;;;;;;;;;8.26;50.22;99262.22;4451273;32;33317;-65
2021/12/08 12:36:19;;;;;;;;;;;;;;;8.27;49.58;99264.88;4457468;32;34478;-65
2021/12/08 12:38:47;;;;;;;;;;;;;;;8.04;50.57;99260.38;4463318;32;33712;-65
2021/12/08 12:41:25;;;;;;;;;;;;;;;7.81;50.97;99257.59;4447346;32;33921;-64
2021/12/08 12:44:11;;;;;;;;;;;;;;;7.82;51.86;99258.47;4456736;32;35060;-65
2021/12/08 12:46:59;;;;;;;;;;;;;;;8.36;49.64;99253.19;4429038;32;34507;-64
2021/12/08 12:49:27;;;;;;;;;;;;;;;8.07;50.76;99248.50;4461890;32;33490;-65
2021/12/08 12:52:01;;;;;;;;;;;;;;;7.93;50.92;99246.97;4452371;32;33939;-64
2021/12/08 12:54:28;;;;;;;;;;;;;;;8.31;49.18;99252.13;4452803;32;33555;-65
2021/12/08 12:56:56;;;;;;;;;;;;;;;8.10;50.83;99249.47;4453499;32;34334;-65
2021/12/08 12:59:27;;;;;;;;;;;;;;;8.21;49.18;99237.94;4439127;32;34072;-65
2021/12/08 13:02:09;;;;;;;;;;;;;;;8.01;49.96;99235.31;4453986;32;34151;-65
2021/12/08 13:04:51;;;;;;;;;;;;;;;7.86;50.31;99237.16;4457779;32;33659;-65
2021/12/08 13:07:18;;;;;;;;;;;;;;;7.74;50.73;99234.03;4440983;32;34540;-65
2021/12/08 13:09:56;;;;;;;;;;;;;;;7.79;50.71;99233.44;4455310;32;34065;-65
2021/12/08 13:12:26;;;;;;;;;;;;;;;7.93;50.83;99240.94;4440830;32;34130;-67
2021/12/08 13:15:11;;;;;;;;;;;;;;;8.18;49.58;99240.34;4452750;32;34167;-66
2021/12/08 13:17:39;;;;;;;;;;;;;;;8.19;49.84;99244.69;4449084;32;34562;-65
2021/12/08 13:20:09;;;;;;;;;;;;;;;8.05;49.88;99239.81;4438571;32;33761;-67
2021/12/08 13:22:41;;;;;;;;;;;;;;;7.65;51.30;99243.12;4427544;32;34098;-66
2021/12/08 13:25:24;;;;;;;;;;;;;;;7.92;50.89;99244.31;4450741;32;34977;-65
2021/12/08 13:27:53;;;;;;;;;;;;;;;7.44;51.76;99249.81;4450072;32;34398;-65
2021/12/08 13:30:21;;;;;;;;;;;;;;;7.79;51.00;99259.22;4454083;32;34238;-65
2021/12/08 13:32:56;;;;;;;;;;;;;;;7.73;51.08;99258.06;4454118;32;34166;-65
2021/12/08 13:35:31;;;;;;;;;;;;;;;7.63;51.73;99247.31;4452657;32;33990;-64
2021/12/08 13:38:03;;;;;;;;;;;;;;;7.70;51.76;99247.59;4454899;32;35271;-65
2021/12/08 13:40:44;;;;;;;;;;;;;;;7.79;51.58;99242.88;4452580;32;34263;-66
2021/12/08 13:43:24;;;;;;;;;;;;;;;7.92;51.00;99260.69;4452584;32;33994;-64
2021/12/08 13:45:51;;;;;;;;;;;;;;;7.81;51.49;99249.88;4430189;32;34700;-64
2021/12/08 13:48:19;;;;;;;;;;;;;;;7.68;51.98;99260.41;4440826;32;35033;-65
2021/12/08 13:50:46;;;;;;;;;;;;;;;7.54;52.31;99257.19;4452892;32;34174;-64
2021/12/08 13:53:15;;;;;;;;;;;;;;;7.40;52.68;99250.50;4446993;32;34183;-64
2021/12/08 13:55:48;;;;;;;;;;;;;;;7.18;53.10;99252.00;4453868;32;33923;-64
2021/12/08 13:58:18;;;;;;;;;;;;;;;7.49;52.20;99248.34;4453553;32;34167;-64